Time;durP1;ratioP1;P1;durP2;ratioP2;P2;SDS_P1;SDS_P2;PMS_P1;PMS_P2;Temp;Humidity;BMP_temperature;BMP_pressure;BME280_temperature;BME280_humidity;BME280_pressure;Samples;Min_cycle;Max_cycle;Signal;HPM_P1;HPM_P2
2021/04/03 00:00:13;;;;;;;;;;;;;;;11.09;51.58;101405.56;5040189;28;96713;-81
2021/04/03 00:02:39;;;;;;;;;;;;;;;10.69;52.75;101418.94;5030010;28;96686;-82
2021/04/03 00:05:07;;;;;;;;;;;;;;;10.35;53.93;101411.84;5025857;28;99190;-80
2021/04/03 00:07:33;;;;;;;;;;;;;;;10.73;52.33;101416.19;5034471;28;97612;-80
2021/04/03 00:10:00;;;;;;;;;;;;;;;10.31;53.25;101419.84;5038511;28;96736;-82
2021/04/03 00:12:26;;;;;;;;;;;;;;;9.97;54.54;101422.41;5030296;28;96603;-81
2021/04/03 00:14:53;;;;;;;;;;;;;;;10.24;53.91;101415.66;5026988;28;98927;-82
2021/04/03 00:17:19;;;;;;;;;;;;;;;10.19;53.58;101423.66;5030240;28;99239;-82
2021/04/03 00:19:45;;;;;;;;;;;;;;;9.81;54.81;101427.13;5045247;28;96826;-80
2021/04/03 00:22:11;;;;;;;;;;;;;;;9.89;54.85;101429.63;5044778;27;96814;-81
2021/04/03 00:24:38;;;;;;;;;;;;;;;9.71;55.05;101422.97;5043118;28;101921;-81
2021/04/03 00:27:05;;;;;;;;;;;;;;;9.88;54.69;101425.22;5041575;28;97883;-81
2021/04/03 00:29:31;;;;;;;;;;;;;;;9.69;55.50;101426.53;5041304;28;96795;-81
2021/04/03 00:31:58;;;;;;;;;;;;;;;9.76;55.49;101412.31;5024459;28;96767;-80
2021/04/03 00:34:24;;;;;;;;;;;;;;;9.92;54.69;101414.56;5022565;27;100418;-81
2021/04/03 00:36:50;;;;;;;;;;;;;;;9.65;55.51;101415.16;5029793;28;101946;-82
2021/04/03 00:39:16;;;;;;;;;;;;;;;9.78;54.99;101416.63;5045026;28;96900;-81
2021/04/03 00:41:42;;;;;;;;;;;;;;;10.04;53.94;101412.56;5038180;28;96825;-81
2021/04/03 00:44:08;;;;;;;;;;;;;;;9.60;55.43;101423.19;5033160;28;98177;-80
2021/04/03 00:46:34;;;;;;;;;;;;;;;9.56;55.86;101425.91;5038677;28;97633;-80
2021/04/03 00:49:05;;;;;;;;;;;;;;;9.24;56.49;101423.94;5034210;28;96803;-81
2021/04/03 00:51:30;;;;;;;;;;;;;;;9.88;54.37;101426.09;5029918;28;96774;-82
2021/04/03 00:53:56;;;;;;;;;;;;;;;9.55;55.27;101421.53;5045632;28;97712;-83
2021/04/03 00:56:22;;;;;;;;;;;;;;;9.50;55.64;101431.31;5028389;27;98189;-80
2021/04/03 00:58:48;;;;;;;;;;;;;;;9.88;54.46;101428.75;5040217;28;97139;-82
2021/04/03 01:01:14;;;;;;;;;;;;;;;10.25;52.77;101434.09;5022729;28;96881;-82
2021/04/03 01:03:40;;;;;;;;;;;;;;;10.32;52.59;101434.81;5019201;28;98854;-82
2021/04/03 01:06:07;;;;;;;;;;;;;;;9.79;53.67;101438.63;5020104;28;99966;-82
2021/04/03 01:08:33;;;;;;;;;;;;;;;10.02;53.52;101432.84;5036066;28;97038;-81
2021/04/03 01:11:00;;;;;;;;;;;;;;;9.61;54.86;101437.22;5034581;28;96898;-82
2021/04/03 01:13:36;;;;;;;;;;;;;;;9.97;53.47;101430.31;5023333;28;101558;-82
2021/04/03 01:16:06;;;;;;;;;;;;;;;9.92;53.74;101432.16;5026907;28;98824;-81
2021/04/03 01:18:38;;;;;;;;;;;;;;;9.84;53.54;101429.72;5025317;28;96807;-81
2021/04/03 01:21:07;;;;;;;;;;;;;;;9.58;54.17;101432.03;5039955;28;97110;-83
2021/04/03 01:23:52;;;;;;;;;;;;;;;10.03;53.21;101431.94;5025939;27;100406;-83
2021/04/03 01:26:38;;;;;;;;;;;;;;;9.48;54.83;101438.38;5038630;28;99203;-83
2021/04/03 01:29:27;;;;;;;;;;;;;;;9.46;55.13;101435.78;5028097;27;96720;-82
2021/04/03 01:31:54;;;;;;;;;;;;;;;9.42;54.84;101439.38;5035844;28;97208;-81
2021/04/03 01:34:23;;;;;;;;;;;;;;;9.87;53.98;101437.56;5029448;28;97681;-82
2021/04/03 01:36:49;;;;;;;;;;;;;;;9.22;55.99;101452.06;5033236;28;98136;-80
2021/04/03 01:39:17;;;;;;;;;;;;;;;9.17;56.03;101457.44;5025638;28;96722;-82
2021/04/03 01:41:45;;;;;;;;;;;;;;;9.72;54.65;101444.91;5023150;28;96697;-81
2021/04/03 01:44:12;;;;;;;;;;;;;;;10.20;52.73;101443.91;5020709;28;98136;-81
2021/04/03 01:46:38;;;;;;;;;;;;;;;9.35;55.02;101452.72;5021251;28;97986;-81
2021/04/03 01:49:09;;;;;;;;;;;;;;;9.73;54.18;101444.91;5037476;28;96823;-82
2021/04/03 01:51:36;;;;;;;;;;;;;;;9.34;55.24;101457.13;5017665;28;96819;-82
2021/04/03 01:54:02;;;;;;;;;;;;;;;9.34;55.24;101450.97;5027865;28;97884;-82
2021/04/03 01:56:30;;;;;;;;;;;;;;;9.37;55.25;101462.34;5031884;28;99696;-81
2021/04/03 01:58:57;;;;;;;;;;;;;;;9.27;55.53;101458.13;5017012;28;97034;-81
2021/04/03 02:01:23;;;;;;;;;;;;;;;9.63;54.52;101466.25;5016104;28;96841;-82
2021/04/03 02:03:49;;;;;;;;;;;;;;;9.33;55.35;101465.06;5016656;28;97735;-80
2021/04/03 02:06:16;;;;;;;;;;;;;;;9.25;55.34;101472.25;5016823;28;98918;-81
2021/04/03 02:08:45;;;;;;;;;;;;;;;9.32;55.49;101474.72;5024472;28;96695;-81
2021/04/03 02:11:11;;;;;;;;;;;;;;;9.04;55.67;101474.38;5022124;28;97235;-82
2021/04/03 02:13:38;;;;;;;;;;;;;;;9.07;55.88;101471.69;5035509;28;100290;-80
2021/04/03 02:16:05;;;;;;;;;;;;;;;9.43;55.05;101482.47;5016027;28;99208;-81
2021/04/03 02:18:33;;;;;;;;;;;;;;;9.44;54.70;101484.19;5030018;28;96801;-81
2021/04/03 02:21:01;;;;;;;;;;;;;;;9.18;55.18;101476.78;5038808;28;96950;-82
2021/04/03 02:23:28;;;;;;;;;;;;;;;9.48;54.32;101480.59;5036776;28;98810;-82
2021/04/03 02:25:55;;;;;;;;;;;;;;;9.79;53.45;101486.13;5036785;28;100219;-81
2021/04/03 02:28:21;;;;;;;;;;;;;;;9.35;54.42;101490.50;5035981;28;96838;-80
2021/04/03 02:30:47;;;;;;;;;;;;;;;9.11;55.74;101483.94;5036079;28;96767;-80
2021/04/03 02:33:13;;;;;;;;;;;;;;;9.32;54.47;101479.16;5029864;28;99131;-81
2021/04/03 02:35:39;;;;;;;;;;;;;;;9.16;55.08;101478.56;5030192;28;99493;-81
2021/04/03 02:38:05;;;;;;;;;;;;;;;9.05;55.62;101485.81;5018643;28;96746;-79
2021/04/03 02:40:34;;;;;;;;;;;;;;;9.40;54.24;101498.31;5030322;28;96779;-79
2021/04/03 02:43:04;;;;;;;;;;;;;;;9.40;53.99;101498.31;5028539;27;100129;-81
2021/04/03 02:45:32;;;;;;;;;;;;;;;9.64;53.66;101489.09;5027604;28;97732;-79
2021/04/03 02:48:00;;;;;;;;;;;;;;;9.89;52.69;101487.69;5031039;28;97169;-80
2021/04/03 02:50:29;;;;;;;;;;;;;;;9.86;52.60;101493.00;5037131;27;96838;-79
2021/04/03 02:52:55;;;;;;;;;;;;;;;10.06;52.06;101496.09;5036216;28;99150;-81
2021/04/03 02:55:24;;;;;;;;;;;;;;;9.87;52.25;101506.19;5025060;28;98442;-81
2021/04/03 02:57:52;;;;;;;;;;;;;;;9.64;52.70;101508.44;5030571;28;96692;-80
2021/04/03 03:00:19;;;;;;;;;;;;;;;8.97;54.93;101517.56;5032354;28;97184;-79
2021/04/03 03:02:46;;;;;;;;;;;;;;;8.61;56.25;101520.75;5031337;27;99368;-81
2021/04/03 03:05:13;;;;;;;;;;;;;;;8.31;57.16;101524.72;5035032;28;96908;-81
2021/04/03 03:07:40;;;;;;;;;;;;;;;8.51;56.50;101514.78;5027284;27;98870;-81
2021/04/03 03:10:07;;;;;;;;;;;;;;;8.20;57.54;101519.59;5027776;28;96834;-79
2021/04/03 03:12:34;;;;;;;;;;;;;;;8.50;56.17;101522.69;5038836;28;98990;-80
2021/04/03 03:15:04;;;;;;;;;;;;;;;8.46;56.90;101521.00;5032219;27;98863;-80
2021/04/03 03:17:30;;;;;;;;;;;;;;;8.67;55.52;101518.91;5032687;28;96870;-81
2021/04/03 03:19:57;;;;;;;;;;;;;;;8.73;56.08;101520.56;5017890;28;96747;-78
2021/04/03 03:22:23;;;;;;;;;;;;;;;9.00;54.73;101520.13;5030777;28;97418;-80
2021/04/03 03:24:49;;;;;;;;;;;;;;;8.45;56.13;101519.28;5035845;28;99243;-80
2021/04/03 03:27:15;;;;;;;;;;;;;;;8.43;55.96;101529.81;5031237;28;96768;-80
2021/04/03 03:29:42;;;;;;;;;;;;;;;8.51;56.39;101532.34;5017604;28;97048;-81
2021/04/03 03:32:09;;;;;;;;;;;;;;;8.45;56.39;101541.22;5021594;27;99244;-80
2021/04/03 03:34:35;;;;;;;;;;;;;;;8.27;56.72;101541.44;5015146;27;98515;-80
2021/04/03 03:37:01;;;;;;;;;;;;;;;8.16;56.59;101535.41;5031408;28;96761;-81
2021/04/03 03:39:27;;;;;;;;;;;;;;;8.41;56.30;101544.75;5018891;27;97014;-80
2021/04/03 03:41:56;;;;;;;;;;;;;;;8.36;56.37;101539.56;5029219;28;99330;-81
2021/04/03 03:44:22;;;;;;;;;;;;;;;8.77;55.00;101532.81;5017202;27;97554;-81
2021/04/03 03:46:48;;;;;;;;;;;;;;;8.65;55.29;101540.91;5036503;27;96843;-79
2021/04/03 03:49:14;;;;;;;;;;;;;;;8.56;55.40;101544.56;5038170;28;97004;-82
2021/04/03 03:51:40;;;;;;;;;;;;;;;8.95;54.63;101543.06;5021024;28;98124;-80
2021/04/03 03:54:06;;;;;;;;;;;;;;;9.40;52.99;101544.03;5032936;28;99689;-80
2021/04/03 03:56:32;;;;;;;;;;;;;;;9.31;52.74;101544.22;5039101;28;96935;-79
2021/04/03 03:58:58;;;;;;;;;;;;;;;9.32;52.43;101545.94;5039332;28;96759;-80
2021/04/03 04:01:23;;;;;;;;;;;;;;;9.11;53.41;101548.97;5031350;27;99804;-81
2021/04/03 04:03:50;;;;;;;;;;;;;;;8.86;53.53;101543.19;5017532;28;98805;-81
2021/04/03 04:06:17;;;;;;;;;;;;;;;8.39;55.45;101547.44;5028646;28;97736;-82
2021/04/03 04:08:44;;;;;;;;;;;;;;;8.48;55.27;101541.16;5038211;27;96771;-81
2021/04/03 04:11:10;;;;;;;;;;;;;;;8.84;54.08;101537.09;5036259;28;98988;-82
2021/04/03 04:13:37;;;;;;;;;;;;;;;8.97;53.43;101541.28;5037823;28;99288;-80
2021/04/03 04:16:03;;;;;;;;;;;;;;;8.50;55.20;101543.78;5029773;27;96818;-82
2021/04/03 04:18:29;;;;;;;;;;;;;;;8.61;54.70;101545.34;5017176;28;96958;-81
2021/04/03 04:20:55;;;;;;;;;;;;;;;8.93;54.05;101550.13;5029757;28;99950;-81
2021/04/03 04:23:21;;;;;;;;;;;;;;;8.92;53.67;101545.78;5035202;28;98029;-80
2021/04/03 04:25:47;;;;;;;;;;;;;;;8.77;54.02;101543.38;5040647;27;96801;-81
2021/04/03 04:28:13;;;;;;;;;;;;;;;9.23;52.55;101551.41;5042615;28;97448;-80
2021/04/03 04:30:39;;;;;;;;;;;;;;;8.86;53.64;101564.28;5034457;28;98816;-82
2021/04/03 04:33:05;;;;;;;;;;;;;;;8.44;54.60;101560.53;5038839;28;98911;-81
2021/04/03 04:35:31;;;;;;;;;;;;;;;8.11;55.83;101571.47;5037230;28;96992;-82
2021/04/03 04:37:57;;;;;;;;;;;;;;;8.18;55.62;101566.13;5038410;27;96725;-80
2021/04/03 04:40:24;;;;;;;;;;;;;;;8.18;55.84;101571.38;5031344;28;98551;-81
2021/04/03 04:42:50;;;;;;;;;;;;;;;8.42;55.44;101577.25;5032351;27;102268;-80
2021/04/03 04:45:16;;;;;;;;;;;;;;;8.15;55.94;101578.44;5018046;28;96706;-80
2021/04/03 04:47:42;;;;;;;;;;;;;;;7.97;56.33;101579.53;5024475;28;96709;-80
2021/04/03 04:50:09;;;;;;;;;;;;;;;8.06;55.95;101576.81;5018060;28;99117;-80
2021/04/03 04:52:35;;;;;;;;;;;;;;;8.16;55.64;101578.41;5022016;28;99787;-81
2021/04/03 04:55:01;;;;;;;;;;;;;;;8.79;53.59;101584.59;5030623;28;96693;-81
2021/04/03 04:57:28;;;;;;;;;;;;;;;8.49;54.74;101582.41;5022153;28;96810;-80
2021/04/03 04:59:55;;;;;;;;;;;;;;;9.04;53.16;101582.47;5028700;27;98457;-80
2021/04/03 05:02:21;;;;;;;;;;;;;;;9.08;53.11;101585.91;5024413;27;97527;-81
2021/04/03 05:04:47;;;;;;;;;;;;;;;9.13;52.37;101589.34;5019168;28;96723;-81
2021/04/03 05:07:13;;;;;;;;;;;;;;;8.97;52.95;101588.72;5047150;28;97027;-80
2021/04/03 05:09:39;;;;;;;;;;;;;;;9.38;51.76;101589.84;5044383;28;97822;-81
2021/04/03 05:12:06;;;;;;;;;;;;;;;8.96;52.92;101596.66;5045094;28;97951;-82
2021/04/03 05:14:32;;;;;;;;;;;;;;;9.01;52.68;101600.97;5033552;28;96658;-82
2021/04/03 05:16:59;;;;;;;;;;;;;;;8.17;55.01;101610.88;5034555;28;97659;-80
2021/04/03 05:19:25;;;;;;;;;;;;;;;8.63;54.15;101614.72;5037319;28;99510;-80
2021/04/03 05:21:50;;;;;;;;;;;;;;;9.00;52.94;101619.44;5022646;27;99195;-81
2021/04/03 05:24:16;;;;;;;;;;;;;;;9.24;52.41;101621.72;5021392;28;96794;-81
2021/04/03 05:26:42;;;;;;;;;;;;;;;10.03;50.08;101622.06;5017513;28;96969;-80
2021/04/03 05:29:08;;;;;;;;;;;;;;;9.85;50.34;101624.13;5020389;28;101559;-81
2021/04/03 05:31:35;;;;;;;;;;;;;;;9.97;49.79;101630.97;5029555;28;100689;-80
2021/04/03 05:34:01;;;;;;;;;;;;;;;9.44;51.04;101634.56;5031771;28;97220;-81
2021/04/03 05:36:27;;;;;;;;;;;;;;;9.42;51.74;101636.34;5031341;28;96922;-81
2021/04/03 05:38:53;;;;;;;;;;;;;;;9.32;52.20;101632.13;5017479;28;98808;-80
2021/04/03 05:41:19;;;;;;;;;;;;;;;9.33;52.03;101647.03;5027375;27;102668;-81
2021/04/03 05:43:46;;;;;;;;;;;;;;;9.19;52.38;101642.84;5029620;28;96784;-81
2021/04/03 05:46:14;;;;;;;;;;;;;;;9.47;51.66;101642.41;5030489;28;96799;-81
2021/04/03 05:48:41;;;;;;;;;;;;;;;9.74;50.40;101652.50;5024927;28;98939;-81
2021/04/03 05:51:07;;;;;;;;;;;;;;;9.37;51.51;101646.13;5037628;28;99191;-81
2021/04/03 05:53:35;;;;;;;;;;;;;;;8.96;52.86;101660.81;5028529;28;96949;-81
2021/04/03 05:56:01;;;;;;;;;;;;;;;8.51;53.82;101672.81;5030347;28;96804;-81
2021/04/03 05:58:27;;;;;;;;;;;;;;;8.95;52.92;101664.31;5037063;28;99326;-80
2021/04/03 06:00:54;;;;;;;;;;;;;;;8.83;53.12;101674.16;5033933;28;98822;-81
2021/04/03 06:03:20;;;;;;;;;;;;;;;9.52;51.28;101666.94;5025940;28;96961;-81
2021/04/03 06:05:49;;;;;;;;;;;;;;;8.82;53.11;101664.50;5036223;28;98544;-80
2021/04/03 06:08:15;;;;;;;;;;;;;;;9.17;52.01;101671.03;5027717;28;101249;-81
2021/04/03 06:10:41;;;;;;;;;;;;;;;8.89;52.07;101676.72;5034914;27;97675;-81
2021/04/03 06:13:16;;;;;;;;;;;;;;;7.83;55.23;101678.78;5022554;28;96678;-81
2021/04/03 06:15:42;;;;;;;;;;;;;;;7.68;55.62;101684.22;5022088;28;97230;-81
2021/04/03 06:18:09;;;;;;;;;;;;;;;7.66;55.23;101693.88;5028206;28;98102;-79
2021/04/03 06:20:36;;;;;;;;;;;;;;;8.01;54.47;101691.78;5022356;27;99439;-80
2021/04/03 06:23:03;;;;;;;;;;;;;;;8.09;53.74;101689.06;5022569;27;96925;-80
2021/04/03 06:25:29;;;;;;;;;;;;;;;8.86;51.35;101684.69;5035480;27;97023;-81
2021/04/03 06:28:04;;;;;;;;;;;;;;;7.65;54.52;101697.38;5038171;27;98947;-81
2021/04/03 06:30:32;;;;;;;;;;;;;;;8.50;52.20;101691.28;5038564;28;97695;-81
2021/04/03 06:33:12;;;;;;;;;;;;;;;8.57;51.10;101693.81;5035919;27;97550;-81
2021/04/03 06:35:38;;;;;;;;;;;;;;;8.18;52.10;101710.03;5052077;27;96809;-80
2021/04/03 06:38:17;;;;;;;;;;;;;;;8.32;51.46;101711.69;5036459;27;98854;-80
2021/04/03 06:40:43;;;;;;;;;;;;;;;8.27;51.62;101713.44;5029725;27;98149;-80
2021/04/03 06:43:13;;;;;;;;;;;;;;;8.73;50.35;101710.28;5023591;27;97527;-80
2021/04/03 06:45:40;;;;;;;;;;;;;;;8.81;49.91;101708.44;5022544;27;98488;-79
2021/04/03 06:48:08;;;;;;;;;;;;;;;8.56;50.26;101717.53;5034991;27;98118;-80
2021/04/03 06:50:35;;;;;;;;;;;;;;;8.75;49.74;101724.34;5039687;28;96915;-81
2021/04/03 06:53:02;;;;;;;;;;;;;;;8.80;49.30;101725.13;5039039;27;96726;-82
2021/04/03 06:55:30;;;;;;;;;;;;;;;9.56;47.74;101724.94;5034676;27;97253;-82
2021/04/03 06:57:56;;;;;;;;;;;;;;;10.75;44.39;101726.31;5030297;27;99939;-81
2021/04/03 07:00:23;;;;;;;;;;;;;;;10.77;44.09;101729.78;5032781;28;99144;-81
2021/04/03 07:02:53;;;;;;;;;;;;;;;10.25;44.96;101729.94;5031645;28;97102;-81
2021/04/03 07:05:20;;;;;;;;;;;;;;;10.47;44.14;101721.59;5034526;28;96741;-81
2021/04/03 07:07:47;;;;;;;;;;;;;;;10.51;43.93;101726.78;5041830;28;97921;-81
2021/04/03 07:10:14;;;;;;;;;;;;;;;10.93;42.63;101710.94;5039328;27;99714;-81
2021/04/03 07:12:41;;;;;;;;;;;;;;;10.34;43.09;101732.41;5049736;27;96841;-80
2021/04/03 07:15:08;;;;;;;;;;;;;;;9.44;45.05;101729.53;5041565;28;97033;-80
2021/04/03 07:17:39;;;;;;;;;;;;;;;9.93;43.91;101733.13;5051918;27;98178;-80
2021/04/03 07:20:08;;;;;;;;;;;;;;;10.11;43.13;101734.56;5038275;27;96704;-81
2021/04/03 07:22:34;;;;;;;;;;;;;;;9.43;45.23;101740.97;5029965;27;97158;-81
2021/04/03 07:25:01;;;;;;;;;;;;;;;9.97;43.81;101737.47;5031866;27;96913;-81
2021/04/03 07:27:27;;;;;;;;;;;;;;;10.15;42.78;101749.47;5032128;27;98388;-81
2021/04/03 07:29:54;;;;;;;;;;;;;;;9.91;42.77;101740.19;5034732;27;99188;-80
2021/04/03 07:32:31;;;;;;;;;;;;;;;9.99;42.49;101743.56;5030979;27;97286;-81
2021/04/03 07:34:57;;;;;;;;;;;;;;;9.93;42.48;101742.81;5027684;28;97051;-82
2021/04/03 07:37:36;;;;;;;;;;;;;;;10.58;41.21;101748.69;5030365;28;98138;-81
2021/04/03 07:40:03;;;;;;;;;;;;;;;10.60;40.19;101746.88;5036352;28;99223;-81
2021/04/03 07:42:36;;;;;;;;;;;;;;;10.78;39.98;101757.09;5026518;27;96979;-81
2021/04/03 07:45:05;;;;;;;;;;;;;;;11.17;38.68;101744.78;5028495;27;97066;-80
2021/04/03 07:47:45;;;;;;;;;;;;;;;11.02;38.79;101753.06;5028757;28;101650;-84
2021/04/03 07:50:11;;;;;;;;;;;;;;;10.38;39.45;101752.56;5029688;27;98869;-82
2021/04/03 07:52:52;;;;;;;;;;;;;;;10.82;38.51;101763.19;5029782;27;96748;-80
2021/04/03 07:55:31;;;;;;;;;;;;;;;10.90;38.25;101755.94;5041358;27;96847;-82
2021/04/03 07:58:16;;;;;;;;;;;;;;;11.48;37.26;101753.78;5035362;28;97540;-81
2021/04/03 08:00:44;;;;;;;;;;;;;;;11.24;37.64;101767.56;5036232;28;100212;-80
2021/04/03 08:03:10;;;;;;;;;;;;;;;11.83;36.20;101767.97;5031201;28;96718;-81
2021/04/03 08:05:36;;;;;;;;;;;;;;;11.76;36.05;101766.38;5041037;28;96759;-80
2021/04/03 08:08:03;;;;;;;;;;;;;;;12.01;35.18;101775.50;5041566;28;98833;-80
2021/04/03 08:10:29;;;;;;;;;;;;;;;11.47;36.41;101775.88;5039848;28;97979;-81
2021/04/03 08:12:55;;;;;;;;;;;;;;;11.49;35.87;101767.88;5042790;28;97058;-81
2021/04/03 08:15:21;;;;;;;;;;;;;;;12.41;34.36;101763.81;5030750;28;97687;-79
2021/04/03 08:17:52;;;;;;;;;;;;;;;11.58;34.41;101763.25;5030163;28;99248;-79
2021/04/03 08:20:20;;;;;;;;;;;;;;;12.54;33.02;101767.88;5052524;28;100932;-81
2021/04/03 08:22:57;;;;;;;;;;;;;;;12.12;32.55;101765.47;5041969;28;96862;-80
2021/04/03 08:25:23;;;;;;;;;;;;;;;12.03;33.02;101764.84;5033439;28;96876;-82
2021/04/03 08:27:49;;;;;;;;;;;;;;;11.90;33.17;101764.28;5021650;28;101476;-81
2021/04/03 08:30:23;;;;;;;;;;;;;;;11.85;32.42;101776.78;5030988;28;97690;-80
2021/04/03 08:33:10;;;;;;;;;;;;;;;12.88;30.49;101754.56;5041756;27;97025;-81
2021/04/03 08:35:37;;;;;;;;;;;;;;;13.46;29.90;101756.34;5022172;28;96860;-81
2021/04/03 08:38:07;;;;;;;;;;;;;;;13.44;29.36;101764.38;5031028;28;97700;-81
2021/04/03 08:40:33;;;;;;;;;;;;;;;13.11;29.59;101776.88;5040644;28;101471;-82
2021/04/03 08:42:59;;;;;;;;;;;;;;;12.67;30.23;101769.28;5044396;28;96918;-81
2021/04/03 08:45:25;;;;;;;;;;;;;;;13.20;30.04;101781.03;5046084;28;96846;-81
2021/04/03 08:47:51;;;;;;;;;;;;;;;13.16;30.79;101776.75;5043975;28;99252;-81
2021/04/03 08:50:18;;;;;;;;;;;;;;;12.88;31.23;101776.66;5043807;28;99711;-80
2021/04/03 08:52:45;;;;;;;;;;;;;;;12.18;32.37;101794.47;5029055;28;96816;-81
2021/04/03 08:55:11;;;;;;;;;;;;;;;12.21;32.89;101786.44;5043718;28;96655;-82
2021/04/03 08:57:37;;;;;;;;;;;;;;;12.24;33.39;101786.38;5049678;28;96881;-81
2021/04/03 09:00:05;;;;;;;;;;;;;;;12.04;33.60;101793.06;5055059;28;96732;-80
2021/04/03 09:02:38;;;;;;;;;;;;;;;11.87;33.99;101786.44;5050625;27;97416;-81
2021/04/03 09:05:05;;;;;;;;;;;;;;;12.95;32.87;101780.00;5048951;28;96760;-81
2021/04/03 09:07:32;;;;;;;;;;;;;;;13.02;32.67;101792.16;5048306;27;97859;-81
2021/04/03 09:10:05;;;;;;;;;;;;;;;12.46;33.75;101791.97;5047548;28;96708;-80
2021/04/03 09:12:31;;;;;;;;;;;;;;;12.48;33.77;101795.44;5041416;27;97303;-81
2021/04/03 09:14:57;;;;;;;;;;;;;;;12.89;33.03;101799.59;5041952;27;97757;-81
2021/04/03 09:17:26;;;;;;;;;;;;;;;13.65;31.81;101797.38;5040681;28;98151;-81
2021/04/03 09:20:04;;;;;;;;;;;;;;;13.45;31.99;101797.13;5040189;28;98095;-81
2021/04/03 09:22:35;;;;;;;;;;;;;;;13.78;31.70;101798.72;5041279;28;96941;-80
2021/04/03 09:25:07;;;;;;;;;;;;;;;11.84;35.09;101804.16;5039750;27;97661;-81
2021/04/03 09:27:33;;;;;;;;;;;;;;;11.14;36.09;101811.00;5038218;28;98517;-82
2021/04/03 09:30:05;;;;;;;;;;;;;;;11.14;36.32;101813.66;5037268;28;99099;-81
2021/04/03 09:32:39;;;;;;;;;;;;;;;10.54;37.11;101816.59;5040092;28;97309;-81
2021/04/03 09:35:06;;;;;;;;;;;;;;;10.84;36.61;101825.69;5040799;28;97126;-81
2021/04/03 09:37:32;;;;;;;;;;;;;;;11.43;35.12;101819.16;5041417;28;97051;-82
2021/04/03 09:39:57;;;;;;;;;;;;;;;11.00;35.42;101826.28;5036546;28;97766;-81
2021/04/03 09:42:26;;;;;;;;;;;;;;;11.96;33.96;101810.03;5029598;27;97359;-82
2021/04/03 09:44:52;;;;;;;;;;;;;;;13.07;31.88;101804.38;5033832;27;97038;-81
2021/04/03 09:47:18;;;;;;;;;;;;;;;13.77;30.76;101804.94;5033090;27;99228;-81
2021/04/03 09:49:45;;;;;;;;;;;;;;;13.82;30.65;101805.66;5026521;27;99025;-80
2021/04/03 09:52:14;;;;;;;;;;;;;;;12.83;32.29;101809.53;5032143;28;97173;-81
2021/04/03 09:54:41;;;;;;;;;;;;;;;13.13;31.93;101804.22;5038902;28;96884;-81
2021/04/03 09:57:07;;;;;;;;;;;;;;;12.34;32.90;101800.22;5039203;28;98858;-82
2021/04/03 09:59:35;;;;;;;;;;;;;;;11.64;33.95;101806.34;5043005;28;99546;-82
2021/04/03 10:02:02;;;;;;;;;;;;;;;11.42;34.38;101809.47;5041053;27;96863;-81
2021/04/03 10:04:31;;;;;;;;;;;;;;;11.39;34.58;101812.22;5044029;28;97038;-80
2021/04/03 10:06:57;;;;;;;;;;;;;;;11.59;34.23;101812.66;5043581;27;100031;-79
2021/04/03 10:09:23;;;;;;;;;;;;;;;11.11;35.45;101821.63;5044839;28;100184;-81
2021/04/03 10:11:49;;;;;;;;;;;;;;;12.07;33.73;101809.78;5034292;27;96772;-82
2021/04/03 10:14:15;;;;;;;;;;;;;;;11.81;33.90;101809.53;5020994;28;96814;-82
2021/04/03 10:16:42;;;;;;;;;;;;;;;12.16;33.75;101820.13;5028360;28;97787;-80
2021/04/03 10:19:08;;;;;;;;;;;;;;;12.35;33.56;101815.22;5025016;28;97140;-80
2021/04/03 10:21:35;;;;;;;;;;;;;;;12.59;32.83;101825.22;5036376;28;96709;-81
2021/04/03 10:24:01;;;;;;;;;;;;;;;12.51;32.20;101831.63;5023501;28;96859;-81
2021/04/03 10:26:27;;;;;;;;;;;;;;;12.69;31.41;101816.06;5030416;27;102024;-81
2021/04/03 10:28:53;;;;;;;;;;;;;;;13.77;29.83;101817.34;5034512;28;97667;-79
2021/04/03 10:31:20;;;;;;;;;;;;;;;13.13;30.48;101816.63;5030869;27;97038;-80
2021/04/03 10:33:47;;;;;;;;;;;;;;;12.91;30.71;101816.38;5034333;28;96908;-80
2021/04/03 10:36:17;;;;;;;;;;;;;;;11.83;32.81;101820.94;5028873;27;99525;-80
2021/04/03 10:38:52;;;;;;;;;;;;;;;12.45;31.83;101826.47;5037739;27;99919;-80
2021/04/03 10:41:18;;;;;;;;;;;;;;;11.87;31.71;101820.00;5036965;28;96914;-80
2021/04/03 10:43:44;;;;;;;;;;;;;;;12.94;30.77;101818.03;5037549;28;97501;-81
2021/04/03 10:46:10;;;;;;;;;;;;;;;13.02;29.91;101819.56;5039056;28;99163;-80
2021/04/03 10:48:36;;;;;;;;;;;;;;;12.71;30.85;101821.34;5033911;28;99053;-80
2021/04/03 10:51:03;;;;;;;;;;;;;;;12.80;30.88;101813.13;5039481;27;97162;-80
2021/04/03 10:53:29;;;;;;;;;;;;;;;12.97;30.50;101817.97;5029920;28;97058;-80
2021/04/03 10:55:55;;;;;;;;;;;;;;;13.15;28.84;101817.47;5029766;27;99317;-80
2021/04/03 10:58:21;;;;;;;;;;;;;;;12.82;29.04;101823.69;5030402;28;98730;-78
2021/04/03 11:00:46;;;;;;;;;;;;;;;12.17;31.01;101837.78;5029028;28;96928;-78
2021/04/03 11:03:12;;;;;;;;;;;;;;;12.06;31.36;101831.88;5025703;27;98426;-79
2021/04/03 11:05:38;;;;;;;;;;;;;;;12.99;30.32;101830.28;5024436;27;98967;-79
2021/04/03 11:08:05;;;;;;;;;;;;;;;12.33;30.52;101839.16;5037118;27;98213;-79
2021/04/03 11:10:31;;;;;;;;;;;;;;;12.33;31.32;101832.97;5036081;28;97122;-78
2021/04/03 11:12:58;;;;;;;;;;;;;;;12.85;30.56;101843.06;5038541;28;96783;-80
2021/04/03 11:15:24;;;;;;;;;;;;;;;12.48;31.93;101847.59;5022318;28;98904;-79
2021/04/03 11:17:52;;;;;;;;;;;;;;;12.67;31.76;101846.19;5029124;28;100657;-80
2021/04/03 11:20:18;;;;;;;;;;;;;;;12.15;32.23;101854.59;5018530;28;96740;-83
2021/04/03 11:22:44;;;;;;;;;;;;;;;12.05;32.50;101847.81;5017575;28;96999;-79
2021/04/03 11:25:13;;;;;;;;;;;;;;;12.12;32.40;101850.28;5030359;28;102014;-80
2021/04/03 11:27:39;;;;;;;;;;;;;;;12.38;31.76;101849.63;5017723;28;98780;-81
2021/04/03 11:30:16;;;;;;;;;;;;;;;12.49;31.59;101850.19;5016078;28;97498;-79
2021/04/03 11:32:42;;;;;;;;;;;;;;;12.10;32.25;101845.91;5030885;28;96800;-79
2021/04/03 11:35:09;;;;;;;;;;;;;;;11.89;32.32;101849.94;5020505;28;98819;-80
2021/04/03 11:37:35;;;;;;;;;;;;;;;11.53;32.42;101860.44;5016962;28;97852;-80
2021/04/03 11:40:01;;;;;;;;;;;;;;;12.17;31.87;101848.38;5016847;28;96748;-80
2021/04/03 11:42:37;;;;;;;;;;;;;;;12.07;32.25;101852.16;5023304;28;96777;-80
2021/04/03 11:45:04;;;;;;;;;;;;;;;12.22;32.01;101848.25;5017703;28;99489;-80
2021/04/03 11:47:33;;;;;;;;;;;;;;;11.69;32.96;101868.00;5034675;28;100839;-81
2021/04/03 11:49:59;;;;;;;;;;;;;;;11.60;32.79;101847.94;5039129;28;96880;-79
2021/04/03 11:52:25;;;;;;;;;;;;;;;11.81;31.73;101851.91;5031850;28;96910;-80
2021/04/03 11:54:51;;;;;;;;;;;;;;;12.17;30.07;101848.38;5034904;28;97823;-81
2021/04/03 11:57:17;;;;;;;;;;;;;;;12.48;28.29;101831.69;5036089;28;98964;-80
2021/04/03 11:59:47;;;;;;;;;;;;;;;11.50;30.16;101847.25;5032134;28;97005;-81
2021/04/03 12:02:14;;;;;;;;;;;;;;;12.88;28.81;101842.97;5036841;28;97009;-78
2021/04/03 12:04:40;;;;;;;;;;;;;;;14.06;27.34;101835.00;5024562;28;98958;-81
2021/04/03 12:07:07;;;;;;;;;;;;;;;13.26;28.32;101838.41;5038652;27;101756;-81
2021/04/03 12:09:33;;;;;;;;;;;;;;;12.83;27.82;101839.56;5039806;27;97345;-79
2021/04/03 12:11:59;;;;;;;;;;;;;;;13.05;26.83;101830.13;5037264;28;96996;-80
2021/04/03 12:14:26;;;;;;;;;;;;;;;13.56;26.57;101832.16;5045192;28;97593;-81
2021/04/03 12:16:53;;;;;;;;;;;;;;;13.98;26.18;101834.41;5047310;28;96851;-79
2021/04/03 12:19:20;;;;;;;;;;;;;;;13.16;28.18;101833.34;5021746;28;96978;-79
2021/04/03 12:21:46;;;;;;;;;;;;;;;12.56;29.21;101835.00;5037962;28;96772;-79
2021/04/03 12:24:12;;;;;;;;;;;;;;;12.88;29.12;101840.31;5042061;28;101616;-79
2021/04/03 12:26:37;;;;;;;;;;;;;;;13.48;28.20;101840.34;5025962;27;99528;-79
2021/04/03 12:29:04;;;;;;;;;;;;;;;13.25;28.37;101842.84;5036503;28;97179;-80
2021/04/03 12:31:30;;;;;;;;;;;;;;;12.86;27.54;101836.84;5040838;28;96788;-79
2021/04/03 12:33:56;;;;;;;;;;;;;;;12.80;27.53;101839.63;5039187;28;99215;-80
2021/04/03 12:36:24;;;;;;;;;;;;;;;13.50;27.05;101845.63;5037475;28;99437;-80
2021/04/03 12:38:50;;;;;;;;;;;;;;;13.02;27.36;101839.94;5038374;28;97367;-80
2021/04/03 12:41:19;;;;;;;;;;;;;;;13.68;26.69;101845.06;5039704;27;96934;-78